Time;durP1;ratioP1;P1;durP2;ratioP2;P2;SDS_P1;SDS_P2;PMS_P1;PMS_P2;Temp;Humidity;BMP_temperature;BMP_pressure;BME280_temperature;BME280_humidity;BME280_pressure;Samples;Min_cycle;Max_cycle;Signal;HPM_P1;HPM_P2
2023/09/14 00:02:15;;;;;;;;;;;20.40;99.90;;;;;;5001397;28;19913;-65
2023/09/14 00:04:40;;;;;;;;;;;20.40;99.90;;;;;;4998564;28;19913;-66
2023/09/14 00:07:06;;;;;;;;;;;20.40;99.90;;;;;;5003700;28;19915;-65
2023/09/14 00:09:32;;;;;;;;;;;20.30;99.90;;;;;;4997990;28;19932;-65
2023/09/14 00:11:57;;;;;;;;;;;20.30;99.90;;;;;;5002452;28;20352;-65
2023/09/14 00:14:23;;;;;;;;;;;20.30;99.90;;;;;;4997705;28;20345;-65
2023/09/14 00:16:48;;;;;;;;;;;20.30;99.90;;;;;;5001500;28;19915;-65
2023/09/14 00:19:14;;;;;;;;;;;20.30;99.90;;;;;;5003301;28;19920;-66
2023/09/14 00:21:42;;;;;;;;;;;20.30;99.90;;;;;;5002973;28;19905;-65
2023/09/14 00:24:07;;;;;;;;;;;20.30;99.90;;;;;;5001182;28;19924;-65
2023/09/14 00:26:33;;;;;;;;;;;20.30;99.90;;;;;;4997839;28;19906;-65
2023/09/14 00:28:58;;;;;;;;;;;20.20;99.90;;;;;;5002033;28;20250;-65
2023/09/14 00:31:24;;;;;;;;;;;20.20;99.90;;;;;;5001620;28;20078;-65
2023/09/14 00:33:50;;;;;;;;;;;20.20;99.90;;;;;;4985459;28;19999;-65
2023/09/14 00:36:15;;;;;;;;;;;20.20;99.90;;;;;;4984336;28;19921;-65
2023/09/14 00:38:41;;;;;;;;;;;20.20;99.90;;;;;;5002544;28;20348;-65
2023/09/14 00:41:06;;;;;;;;;;;20.20;99.90;;;;;;4998054;28;20396;-65
2023/09/14 00:43:34;;;;;;;;;;;20.10;99.90;;;;;;5001715;28;20328;-65
2023/09/14 00:45:59;;;;;;;;;;;20.10;99.90;;;;;;5001846;28;20331;-65
2023/09/14 00:48:25;;;;;;;;;;;20.10;99.90;;;;;;4995739;28;19910;-65
2023/09/14 00:50:50;;;;;;;;;;;20.10;99.90;;;;;;5005893;28;19909;-65
2023/09/14 00:53:16;;;;;;;;;;;20.10;99.90;;;;;;4998998;28;20353;-65
2023/09/14 00:55:43;;;;;;;;;;;20.10;99.90;;;;;;5001969;28;20307;-65
2023/09/14 00:58:14;;;;;;;;;;;20.10;99.90;;;;;;4996841;28;19936;-65
2023/09/14 01:00:40;;;;;;;;;;;20.10;99.90;;;;;;5001249;28;19916;-65
2023/09/14 01:03:06;;;;;;;;;;;20.20;99.90;;;;;;4979149;28;19992;-65
2023/09/14 01:05:31;;;;;;;;;;;20.20;99.90;;;;;;5000447;28;20367;-65
2023/09/14 01:07:57;;;;;;;;;;;20.20;99.90;;;;;;4997786;28;20430;-65
2023/09/14 01:10:23;;;;;;;;;;;20.10;99.90;;;;;;5003645;28;19912;-65
2023/09/14 01:12:49;;;;;;;;;;;20.10;99.90;;;;;;5003409;28;19905;-65
2023/09/14 01:15:21;;;;;;;;;;;20.10;99.90;;;;;;5001145;28;19941;-65
2023/09/14 01:17:47;;;;;;;;;;;20.10;99.90;;;;;;4980124;28;20399;-66
2023/09/14 01:20:30;;;;;;;;;;;20.10;99.90;;;;;;5001153;28;19905;-66
2023/09/14 01:23:15;;;;;;;;;;;20.00;99.90;;;;;;4983504;28;19953;-66
2023/09/14 01:25:41;;;;;;;;;;;20.00;99.90;;;;;;5001227;28;19912;-65
2023/09/14 01:28:08;;;;;;;;;;;20.00;99.90;;;;;;4977870;28;19913;-66
2023/09/14 01:30:33;;;;;;;;;;;20.00;99.90;;;;;;5000171;28;19913;-65
2023/09/14 01:32:59;;;;;;;;;;;20.00;99.90;;;;;;4998056;28;19964;-65
2023/09/14 01:35:27;;;;;;;;;;;20.00;99.90;;;;;;5000596;28;19996;-65
2023/09/14 01:37:54;;;;;;;;;;;20.10;99.90;;;;;;4998623;28;20375;-65
2023/09/14 01:40:19;;;;;;;;;;;20.00;99.90;;;;;;4999896;28;20576;-65
2023/09/14 01:42:46;;;;;;;;;;;20.00;99.90;;;;;;4982800;28;20032;-65
2023/09/14 01:45:12;;;;;;;;;;;20.10;99.90;;;;;;5001247;28;20552;-65
2023/09/14 01:47:37;;;;;;;;;;;20.10;99.90;;;;;;4996869;28;20586;-65
2023/09/14 01:50:03;;;;;;;;;;;20.00;99.90;;;;;;5001304;28;20380;-65
2023/09/14 01:52:30;;;;;;;;;;;20.00;99.90;;;;;;4999973;28;20352;-65
2023/09/14 01:54:56;;;;;;;;;;;19.90;99.90;;;;;;4996468;28;19906;-65
2023/09/14 01:57:21;;;;;;;;;;;19.90;99.90;;;;;;4998357;28;19915;-65
2023/09/14 01:59:47;;;;;;;;;;;19.80;99.90;;;;;;5000180;28;19920;-65
2023/09/14 02:02:12;;;;;;;;;;;19.90;99.90;;;;;;4999773;28;20657;-65
2023/09/14 02:04:38;;;;;;;;;;;19.80;99.90;;;;;;4985135;28;19928;-65
2023/09/14 02:07:03;;;;;;;;;;;19.80;99.90;;;;;;5000502;28;19905;-65
2023/09/14 02:09:29;;;;;;;;;;;19.90;99.90;;;;;;5000907;28;19909;-65
2023/09/14 02:11:55;;;;;;;;;;;19.90;99.90;;;;;;5000054;28;19991;-65
2023/09/14 02:14:20;;;;;;;;;;;19.90;99.90;;;;;;5001125;28;19951;-65
2023/09/14 02:16:46;;;;;;;;;;;19.90;99.90;;;;;;4995640;28;19913;-65
2023/09/14 02:19:11;;;;;;;;;;;19.90;99.90;;;;;;4985240;28;19912;-66
2023/09/14 02:21:37;;;;;;;;;;;19.90;99.90;;;;;;4998913;28;21369;-65
2023/09/14 02:24:02;;;;;;;;;;;19.90;99.90;;;;;;4999213;28;19913;-65
2023/09/14 02:26:28;;;;;;;;;;;19.90;99.90;;;;;;4997217;28;20107;-65
2023/09/14 02:28:53;;;;;;;;;;;19.80;99.90;;;;;;5000866;28;20217;-65
2023/09/14 02:31:19;;;;;;;;;;;19.80;99.90;;;;;;4999355;28;19997;-65
2023/09/14 02:33:44;;;;;;;;;;;19.90;99.90;;;;;;4979270;28;19916;-65
2023/09/14 02:36:10;;;;;;;;;;;19.90;99.90;;;;;;4986396;28;20334;-65
2023/09/14 02:38:35;;;;;;;;;;;19.70;99.90;;;;;;5001339;28;19909;-65
2023/09/14 02:41:01;;;;;;;;;;;19.60;99.90;;;;;;5005173;28;19916;-65
2023/09/14 02:43:26;;;;;;;;;;;19.50;99.90;;;;;;4999795;28;19948;-65
2023/09/14 02:45:52;;;;;;;;;;;19.60;99.90;;;;;;5003716;28;20567;-65
2023/09/14 02:48:17;;;;;;;;;;;19.50;99.90;;;;;;5003604;28;19988;-65
2023/09/14 02:50:43;;;;;;;;;;;19.50;99.90;;;;;;5000243;28;20230;-65
2023/09/14 02:53:09;;;;;;;;;;;19.50;99.90;;;;;;5004111;28;19913;-65
2023/09/14 02:55:34;;;;;;;;;;;19.50;99.90;;;;;;5004201;28;19988;-65
2023/09/14 02:58:00;;;;;;;;;;;19.60;99.90;;;;;;4982389;28;19936;-65
2023/09/14 03:00:26;;;;;;;;;;;19.60;99.90;;;;;;5004013;28;19917;-65
2023/09/14 03:02:51;;;;;;;;;;;19.60;99.90;;;;;;5003173;28;19912;-65
2023/09/14 03:05:17;;;;;;;;;;;19.60;99.90;;;;;;5007752;28;20360;-65
2023/09/14 03:07:43;;;;;;;;;;;19.60;99.90;;;;;;5003126;28;20439;-65
2023/09/14 03:10:09;;;;;;;;;;;19.60;99.90;;;;;;5008371;28;19920;-65
2023/09/14 03:12:34;;;;;;;;;;;19.60;99.90;;;;;;5003327;28;20361;-65
2023/09/14 03:15:00;;;;;;;;;;;19.60;99.90;;;;;;5000195;28;20132;-65
2023/09/14 03:17:25;;;;;;;;;;;19.60;99.90;;;;;;5008461;28;20355;-65
2023/09/14 03:19:53;;;;;;;;;;;19.50;99.90;;;;;;5003086;28;20037;-65
2023/09/14 03:22:18;;;;;;;;;;;19.50;99.90;;;;;;4985226;28;19909;-65
2023/09/14 03:24:44;;;;;;;;;;;19.50;99.90;;;;;;5003127;28;19912;-65
2023/09/14 03:27:09;;;;;;;;;;;19.50;99.90;;;;;;5003006;28;19955;-65
2023/09/14 03:29:35;;;;;;;;;;;19.50;99.90;;;;;;5003418;28;19913;-65
2023/09/14 03:32:00;;;;;;;;;;;19.50;99.90;;;;;;4999134;28;19909;-65
2023/09/14 03:34:26;;;;;;;;;;;19.60;99.90;;;;;;5003478;28;19924;-65
2023/09/14 03:36:52;;;;;;;;;;;19.60;99.90;;;;;;5002851;28;19909;-65
2023/09/14 03:39:17;;;;;;;;;;;19.60;99.90;;;;;;4998167;28;19913;-65
2023/09/14 03:41:43;;;;;;;;;;;19.70;99.90;;;;;;5003342;28;20638;-65
2023/09/14 03:44:08;;;;;;;;;;;19.70;99.90;;;;;;4984718;28;19917;-65
2023/09/14 03:46:34;;;;;;;;;;;19.70;99.90;;;;;;5003196;28;19917;-65
2023/09/14 03:49:02;;;;;;;;;;;19.60;99.90;;;;;;5003273;28;19910;-65
2023/09/14 03:51:27;;;;;;;;;;;19.60;99.90;;;;;;5001887;28;19952;-65
2023/09/14 03:53:53;;;;;;;;;;;19.50;99.90;;;;;;4997238;28;19993;-65
2023/09/14 03:56:18;;;;;;;;;;;19.50;99.90;;;;;;5002341;28;20400;-65
2023/09/14 03:58:44;;;;;;;;;;;19.40;99.90;;;;;;5002605;28;19931;-65
2023/09/14 04:01:10;;;;;;;;;;;19.50;99.90;;;;;;5007310;28;19909;-65
2023/09/14 04:03:35;;;;;;;;;;;19.40;99.90;;;;;;5002242;28;19909;-65
2023/09/14 04:06:01;;;;;;;;;;;19.40;99.90;;;;;;4998631;28;19909;-65
2023/09/14 04:08:26;;;;;;;;;;;19.50;99.90;;;;;;5002691;28;19909;-66
2023/09/14 04:10:52;;;;;;;;;;;19.50;99.90;;;;;;5002879;28;19909;-66
2023/09/14 04:13:28;;;;;;;;;;;19.50;99.90;;;;;;5002030;28;20607;-65
2023/09/14 04:15:54;;;;;;;;;;;19.50;99.90;;;;;;5002508;28;20417;-65
2023/09/14 04:18:20;;;;;;;;;;;19.40;99.90;;;;;;5002063;28;19988;-65
2023/09/14 04:20:49;;;;;;;;;;;19.50;99.90;;;;;;5003490;28;19905;-65
2023/09/14 04:23:14;;;;;;;;;;;19.50;99.90;;;;;;4996330;28;19967;-65
2023/09/14 04:25:46;;;;;;;;;;;19.50;99.90;;;;;;5001861;28;20435;-65
2023/09/14 04:28:12;;;;;;;;;;;19.60;99.90;;;;;;5002401;28;20010;-66
2023/09/14 04:30:45;;;;;;;;;;;19.60;99.90;;;;;;4999512;28;19913;-65
2023/09/14 04:33:11;;;;;;;;;;;19.70;99.90;;;;;;5002215;28;20061;-66
2023/09/14 04:35:37;;;;;;;;;;;19.60;99.90;;;;;;5004156;28;19921;-66
2023/09/14 04:38:03;;;;;;;;;;;19.70;99.90;;;;;;4998490;28;20337;-66
2023/09/14 04:40:28;;;;;;;;;;;19.70;99.90;;;;;;5001320;28;19916;-66
2023/09/14 04:42:54;;;;;;;;;;;19.70;99.90;;;;;;5001565;28;19913;-65
2023/09/14 04:45:19;;;;;;;;;;;19.70;99.90;;;;;;4983132;28;19915;-65
2023/09/14 04:47:45;;;;;;;;;;;19.80;99.90;;;;;;4985445;28;19909;-65
2023/09/14 04:50:10;;;;;;;;;;;19.80;99.90;;;;;;5002855;28;20375;-65
2023/09/14 04:52:36;;;;;;;;;;;19.70;99.90;;;;;;4999181;28;20646;-65
2023/09/14 04:55:01;;;;;;;;;;;19.70;99.90;;;;;;5001744;28;20339;-65
2023/09/14 04:57:27;;;;;;;;;;;19.70;99.90;;;;;;4982483;28;19909;-69
2023/09/14 04:59:52;;;;;;;;;;;19.70;99.90;;;;;;5001421;28;19936;-69
2023/09/14 05:02:18;;;;;;;;;;;19.70;99.90;;;;;;5000095;28;20345;-68
2023/09/14 05:04:44;;;;;;;;;;;19.60;99.90;;;;;;5002105;28;19909;-69
2023/09/14 05:07:09;;;;;;;;;;;19.60;99.90;;;;;;5004227;28;20469;-69
2023/09/14 05:09:35;;;;;;;;;;;19.60;99.90;;;;;;4996582;28;19919;-70
2023/09/14 05:12:00;;;;;;;;;;;19.50;99.90;;;;;;5001636;28;19909;-70
2023/09/14 05:14:26;;;;;;;;;;;19.50;99.90;;;;;;5003204;28;20012;-70
2023/09/14 05:16:51;;;;;;;;;;;19.50;99.90;;;;;;4997102;28;19940;-69
2023/09/14 05:19:17;;;;;;;;;;;19.60;99.90;;;;;;4983891;28;19913;-71
2023/09/14 05:21:42;;;;;;;;;;;19.60;99.90;;;;;;5003087;28;19916;-71
2023/09/14 05:24:08;;;;;;;;;;;19.70;99.90;;;;;;4998267;28;20658;-72
2023/09/14 05:26:33;;;;;;;;;;;19.70;99.90;;;;;;4983704;28;20447;-71
2023/09/14 05:28:59;;;;;;;;;;;19.70;99.90;;;;;;5002312;28;19916;-72
2023/09/14 05:31:25;;;;;;;;;;;19.70;99.90;;;;;;4984745;28;19905;-72
2023/09/14 05:33:50;;;;;;;;;;;19.70;99.90;;;;;;4997138;28;19960;-72
2023/09/14 05:36:16;;;;;;;;;;;19.90;99.90;;;;;;5001479;28;19913;-71
2023/09/14 05:38:41;;;;;;;;;;;20.00;99.90;;;;;;5002117;28;20003;-72
2023/09/14 05:41:07;;;;;;;;;;;20.10;99.90;;;;;;4984031;28;19913;-72
2023/09/14 05:43:32;;;;;;;;;;;20.20;99.90;;;;;;5001502;28;19910;-72
2023/09/14 05:45:59;;;;;;;;;;;20.30;99.90;;;;;;5002361;28;20032;-72
2023/09/14 05:48:25;;;;;;;;;;;20.40;99.90;;;;;;4984633;28;19909;-72
2023/09/14 05:50:51;;;;;;;;;;;20.60;99.90;;;;;;5001104;28;19906;-72
2023/09/14 05:53:16;;;;;;;;;;;20.70;99.90;;;;;;4980467;28;19921;-71
2023/09/14 05:55:42;;;;;;;;;;;20.80;99.90;;;;;;5002487;28;19991;-72
2023/09/14 05:58:08;;;;;;;;;;;20.80;99.90;;;;;;5003311;28;19920;-72
2023/09/14 06:00:33;;;;;;;;;;;20.90;99.90;;;;;;5002138;28;19920;-72
2023/09/14 06:02:59;;;;;;;;;;;21.00;99.90;;;;;;4998043;28;19928;-72
2023/09/14 06:05:25;;;;;;;;;;;21.00;99.90;;;;;;4984036;28;19913;-73
2023/09/14 06:07:50;;;;;;;;;;;21.10;99.90;;;;;;5000439;28;19906;-72
2023/09/14 06:10:16;;;;;;;;;;;21.10;99.90;;;;;;5000070;28;20837;-72
2023/09/14 06:12:42;;;;;;;;;;;21.20;99.90;;;;;;5000480;28;20360;-72
2023/09/14 06:15:08;;;;;;;;;;;21.30;99.90;;;;;;5002655;28;19924;-72
2023/09/14 06:17:34;;;;;;;;;;;21.30;99.90;;;;;;5002361;28;20590;-72
2023/09/14 06:19:59;;;;;;;;;;;21.40;99.90;;;;;;5002633;28;20201;-72
2023/09/14 06:22:25;;;;;;;;;;;21.40;99.90;;;;;;4996219;28;19921;-72
2023/09/14 06:24:51;;;;;;;;;;;21.40;99.90;;;;;;5000756;28;19909;-72
2023/09/14 06:27:16;;;;;;;;;;;21.40;99.90;;;;;;5001153;28;19980;-72
2023/09/14 06:29:42;;;;;;;;;;;21.50;99.90;;;;;;5001183;28;19909;-72
2023/09/14 06:32:07;;;;;;;;;;;21.60;99.90;;;;;;4999524;28;19920;-72
2023/09/14 06:34:33;;;;;;;;;;;21.70;99.90;;;;;;4997992;28;19918;-73
2023/09/14 06:36:58;;;;;;;;;;;21.70;99.90;;;;;;5005609;28;20449;-73
2023/09/14 06:39:24;;;;;;;;;;;21.30;99.90;;;;;;4997049;28;20319;-73
2023/09/14 06:41:49;;;;;;;;;;;21.50;99.90;;;;;;4999887;28;19913;-72
2023/09/14 06:44:18;;;;;;;;;;;21.80;99.90;;;;;;4984593;28;19933;-72
2023/09/14 06:46:47;;;;;;;;;;;21.90;99.90;;;;;;4986783;28;19956;-72
2023/09/14 06:49:13;;;;;;;;;;;22.00;99.90;;;;;;5000414;28;20272;-72
2023/09/14 06:51:38;;;;;;;;;;;21.90;99.90;;;;;;5000739;28;19916;-73
2023/09/14 06:54:04;;;;;;;;;;;21.80;99.90;;;;;;5000447;28;19980;-73
2023/09/14 06:56:31;;;;;;;;;;;21.90;99.90;;;;;;4997665;28;19992;-72
2023/09/14 06:58:56;;;;;;;;;;;21.90;99.90;;;;;;5001090;28;19963;-72
2023/09/14 07:01:22;;;;;;;;;;;21.90;99.90;;;;;;4996511;28;19914;-72
2023/09/14 07:03:48;;;;;;;;;;;21.60;99.90;;;;;;4984461;28;20304;-72
2023/09/14 07:06:14;;;;;;;;;;;21.40;99.90;;;;;;5004245;28;20000;-72
2023/09/14 07:08:41;;;;;;;;;;;21.40;99.90;;;;;;5004757;28;20007;-72
2023/09/14 07:11:07;;;;;;;;;;;21.50;99.90;;;;;;5000588;28;19920;-72
2023/09/14 07:13:33;;;;;;;;;;;21.60;99.90;;;;;;4986909;28;19913;-73
2023/09/14 07:15:58;;;;;;;;;;;22.00;99.90;;;;;;4981226;28;20372;-73
2023/09/14 07:18:26;;;;;;;;;;;22.20;99.90;;;;;;5000128;28;19964;-73
2023/09/14 07:20:52;;;;;;;;;;;22.50;99.90;;;;;;4999815;28;20373;-73
2023/09/14 07:23:18;;;;;;;;;;;22.50;99.90;;;;;;4998753;28;19913;-72
2023/09/14 07:25:43;;;;;;;;;;;22.40;99.90;;;;;;5002341;28;19936;-72
2023/09/14 07:28:09;;;;;;;;;;;22.40;99.90;;;;;;5000637;28;19912;-72
2023/09/14 07:30:35;;;;;;;;;;;22.40;99.90;;;;;;4986986;28;20004;-73
2023/09/14 07:33:00;;;;;;;;;;;22.40;99.90;;;;;;4998872;28;19989;-72
2023/09/14 07:35:26;;;;;;;;;;;22.40;99.90;;;;;;5004182;28;19959;-72
2023/09/14 07:37:51;;;;;;;;;;;22.40;99.90;;;;;;4985235;28;20280;-72
2023/09/14 07:40:17;;;;;;;;;;;22.10;99.90;;;;;;5003306;28;21514;-72
2023/09/14 07:42:42;;;;;;;;;;;22.10;99.90;;;;;;5002775;28;19936;-72
2023/09/14 07:45:08;;;;;;;;;;;22.10;99.90;;;;;;5000863;28;20631;-72
2023/09/14 07:47:34;;;;;;;;;;;22.20;99.90;;;;;;5004418;28;19909;-72
2023/09/14 07:49:59;;;;;;;;;;;22.40;99.90;;;;;;4999772;28;19909;-72
2023/09/14 07:52:25;;;;;;;;;;;22.60;99.90;;;;;;4985606;28;19905;-72
2023/09/14 07:54:50;;;;;;;;;;;22.70;99.90;;;;;;5002383;28;19912;-72
2023/09/14 07:57:16;;;;;;;;;;;22.80;99.90;;;;;;4985515;28;19913;-72
2023/09/14 07:59:41;;;;;;;;;;;22.80;99.90;;;;;;5000225;28;19987;-72
2023/09/14 08:02:08;;;;;;;;;;;22.70;99.90;;;;;;5003920;28;20524;-72
2023/09/14 08:04:33;;;;;;;;;;;22.60;99.90;;;;;;4987530;28;20345;-72
2023/09/14 08:06:59;;;;;;;;;;;22.50;99.90;;;;;;4999435;28;19924;-72
2023/09/14 08:09:25;;;;;;;;;;;22.50;99.90;;;;;;5003357;28;19909;-72
2023/09/14 08:11:50;;;;;;;;;;;22.40;99.90;;;;;;5002751;28;19928;-72
2023/09/14 08:14:16;;;;;;;;;;;22.40;99.90;;;;;;4985142;28;20596;-72
2023/09/14 08:16:41;;;;;;;;;;;22.60;99.90;;;;;;4987963;28;19915;-72
2023/09/14 08:19:07;;;;;;;;;;;22.80;99.90;;;;;;5002698;28;20562;-72
2023/09/14 08:21:33;;;;;;;;;;;22.90;99.90;;;;;;5003960;28;19996;-72
2023/09/14 08:23:58;;;;;;;;;;;23.10;99.90;;;;;;5002861;28;19905;-72
2023/09/14 08:26:24;;;;;;;;;;;23.30;99.90;;;;;;4983098;28;19916;-72
2023/09/14 08:28:51;;;;;;;;;;;23.30;99.90;;;;;;5002468;28;19996;-72
2023/09/14 08:31:16;;;;;;;;;;;23.30;99.90;;;;;;4980417;28;19929;-72
2023/09/14 08:33:42;;;;;;;;;;;23.10;99.90;;;;;;5002774;28;19921;-72
2023/09/14 08:36:07;;;;;;;;;;;23.00;99.90;;;;;;5003394;28;19913;-72
2023/09/14 08:38:33;;;;;;;;;;;22.90;99.90;;;;;;4980840;28;19956;-73
2023/09/14 08:41:00;;;;;;;;;;;22.90;99.90;;;;;;5002214;28;20360;-72
2023/09/14 08:43:26;;;;;;;;;;;22.70;99.90;;;;;;4995881;28;19906;-72
2023/09/14 08:45:52;;;;;;;;;;;22.60;99.90;;;;;;4985895;28;20012;-72
2023/09/14 08:48:21;;;;;;;;;;;22.50;99.90;;;;;;4997754;28;20028;-72
2023/09/14 08:50:47;;;;;;;;;;;22.40;99.90;;;;;;5006216;28;19917;-72
2023/09/14 08:53:13;;;;;;;;;;;22.40;99.90;;;;;;5002185;28;20344;-72
2023/09/14 08:55:38;;;;;;;;;;;22.40;99.90;;;;;;4998550;28;19913;-72
2023/09/14 08:58:04;;;;;;;;;;;22.40;99.90;;;;;;5002258;28;19916;-72
2023/09/14 09:00:31;;;;;;;;;;;22.40;99.90;;;;;;5000473;28;19909;-72
2023/09/14 09:02:57;;;;;;;;;;;22.30;99.90;;;;;;4984173;28;19924;-72
2023/09/14 09:05:26;;;;;;;;;;;22.40;99.90;;;;;;4980473;28;19913;-72
2023/09/14 09:07:52;;;;;;;;;;;22.40;99.90;;;;;;5003067;28;19920;-72
2023/09/14 09:10:18;;;;;;;;;;;22.60;99.90;;;;;;5000814;28;20050;-72
2023/09/14 09:12:45;;;;;;;;;;;22.70;99.90;;;;;;5002305;28;19917;-72
2023/09/14 09:15:11;;;;;;;;;;;22.90;99.90;;;;;;4984326;28;20000;-72
2023/09/14 09:17:38;;;;;;;;;;;23.00;99.90;;;;;;5001596;28;20391;-72
2023/09/14 09:20:14;;;;;;;;;;;23.10;99.90;;;;;;5001556;28;19910;-72
2023/09/14 09:22:43;;;;;;;;;;;23.30;99.90;;;;;;4997840;28;19944;-72
2023/09/14 09:25:13;;;;;;;;;;;23.30;99.90;;;;;;5001265;28;19978;-72
2023/09/14 09:27:39;;;;;;;;;;;23.50;99.90;;;;;;5000838;28;20568;-72
2023/09/14 09:30:05;;;;;;;;;;;23.70;99.90;;;;;;4997677;28;19937;-72
2023/09/14 09:32:31;;;;;;;;;;;23.80;99.90;;;;;;4998505;28;19905;-72
2023/09/14 09:35:14;;;;;;;;;;;24.10;99.90;;;;;;4997658;28;19920;-72
2023/09/14 09:37:40;;;;;;;;;;;24.40;99.90;;;;;;5000911;28;19912;-72
2023/09/14 09:40:11;;;;;;;;;;;24.90;99.90;;;;;;4997893;28;20357;-72
2023/09/14 09:42:36;;;;;;;;;;;25.30;99.90;;;;;;5001719;28;20410;-72
2023/09/14 09:45:03;;;;;;;;;;;26.00;99.90;;;;;;4997686;28;19913;-73
2023/09/14 09:47:31;;;;;;;;;;;27.10;99.90;;;;;;5000990;28;19910;-72
2023/09/14 09:49:57;;;;;;;;;;;28.40;99.90;;;;;;4982062;28;19933;-72
2023/09/14 09:52:23;;;;;;;;;;;27.80;99.90;;;;;;4984762;28;20217;-72
2023/09/14 09:54:49;;;;;;;;;;;28.60;99.90;;;;;;4996900;28;20077;-72
2023/09/14 09:57:15;;;;;;;;;;;28.70;99.90;;;;;;5003593;28;19995;-67
2023/09/14 09:59:43;;;;;;;;;;;30.30;99.00;;;;;;5001686;28;20317;-68
2023/09/14 10:02:09;;;;;;;;;;;30.60;97.80;;;;;;4995168;28;19912;-68
2023/09/14 10:04:35;;;;;;;;;;;30.20;98.30;;;;;;5002658;28;19924;-68
2023/09/14 10:07:04;;;;;;;;;;;31.80;96.80;;;;;;4978863;28;19905;-68
2023/09/14 10:09:34;;;;;;;;;;;34.70;93.60;;;;;;5000693;28;19911;-68
2023/09/14 10:12:03;;;;;;;;;;;35.60;89.90;;;;;;4996398;28;19920;-68
2023/09/14 10:14:28;;;;;;;;;;;34.70;88.10;;;;;;5005201;28;20458;-68
2023/09/14 10:16:54;;;;;;;;;;;35.00;87.10;;;;;;4997162;28;19909;-68
2023/09/14 10:19:20;;;;;;;;;;;35.20;84.80;;;;;;5002974;28;19912;-69
2023/09/14 10:21:46;;;;;;;;;;;36.40;83.10;;;;;;5000455;28;19908;-68
2023/09/14 10:24:12;;;;;;;;;;;37.20;79.20;;;;;;5000914;28;20002;-68
2023/09/14 10:26:38;;;;;;;;;;;35.80;79.40;;;;;;4998199;28;20319;-68
2023/09/14 10:29:07;;;;;;;;;;;35.10;79.90;;;;;;5001461;28;20376;-68
2023/09/14 10:31:33;;;;;;;;;;;36.90;79.10;;;;;;4999561;28;19905;-68
2023/09/14 10:34:00;;;;;;;;;;;38.00;74.90;;;;;;4996482;28;19914;-68
2023/09/14 10:36:30;;;;;;;;;;;38.20;74.60;;;;;;4982903;28;20340;-68
2023/09/14 10:38:57;;;;;;;;;;;38.50;73.40;;;;;;4983766;28;19905;-68
2023/09/14 10:41:22;;;;;;;;;;;37.80;73.30;;;;;;5000263;28;19906;-68
2023/09/14 10:43:48;;;;;;;;;;;36.70;73.30;;;;;;4998053;28;19975;-68
2023/09/14 10:46:16;;;;;;;;;;;35.40;75.10;;;;;;5000575;28;20135;-68
2023/09/14 10:48:42;;;;;;;;;;;34.10;77.50;;;;;;5001800;28;19999;-68
2023/09/14 10:51:11;;;;;;;;;;;34.30;76.50;;;;;;4996691;28;20613;-69
2023/09/14 10:53:41;;;;;;;;;;;35.20;76.20;;;;;;4999501;28;20311;-68
2023/09/14 10:56:22;;;;;;;;;;;34.30;75.50;;;;;;5000047;28;20399;-68
2023/09/14 10:58:52;;;;;;;;;;;32.60;77.00;;;;;;4999720;28;19914;-68
2023/09/14 11:01:24;;;;;;;;;;;30.80;80.90;;;;;;5002186;28;19913;-67
2023/09/14 11:04:10;;;;;;;;;;;30.20;83.50;;;;;;5003357;28;20356;-68
2023/09/14 11:06:46;;;;;;;;;;;30.00;83.40;;;;;;4987335;28;19913;-67
2023/09/14 11:09:15;;;;;;;;;;;29.50;85.20;;;;;;5001195;28;19909;-67
2023/09/14 11:11:44;;;;;;;;;;;28.90;86.90;;;;;;5003945;28;19936;-67
2023/09/14 11:14:11;;;;;;;;;;;29.10;86.50;;;;;;5004317;28;19944;-67
2023/09/14 11:16:53;;;;;;;;;;;29.40;85.90;;;;;;4984925;28;20382;-67
2023/09/14 11:19:37;;;;;;;;;;;29.30;85.90;;;;;;4998576;28;19951;-67
2023/09/14 11:22:05;;;;;;;;;;;28.90;87.60;;;;;;5003759;28;19912;-67
2023/09/14 11:24:34;;;;;;;;;;;28.60;88.10;;;;;;4981664;28;20000;-67
2023/09/14 11:27:00;;;;;;;;;;;27.40;90.40;;;;;;5004346;28;19956;-67
2023/09/14 11:29:27;;;;;;;;;;;27.20;91.00;;;;;;4987923;28;19999;-67
2023/09/14 11:31:57;;;;;;;;;;;27.40;91.10;;;;;;4981138;28;19905;-67
2023/09/14 11:34:23;;;;;;;;;;;27.50;90.70;;;;;;5002981;28;19914;-67
2023/09/14 11:36:51;;;;;;;;;;;27.90;90.30;;;;;;4984722;28;19932;-67
2023/09/14 11:39:17;;;;;;;;;;;27.80;89.10;;;;;;5000015;28;20375;-68
2023/09/14 11:41:49;;;;;;;;;;;27.90;89.70;;;;;;5004787;28;19912;-67
2023/09/14 11:44:15;;;;;;;;;;;28.30;89.70;;;;;;5001516;28;19916;-67
2023/09/14 11:46:41;;;;;;;;;;;28.60;89.70;;;;;;5001754;28;20516;-67
2023/09/14 11:49:07;;;;;;;;;;;28.60;89.10;;;;;;5002960;28;20051;-67
2023/09/14 11:51:33;;;;;;;;;;;28.80;89.10;;;;;;5002620;28;20558;-68
2023/09/14 11:53:59;;;;;;;;;;;28.80;88.10;;;;;;5003374;28;19909;-67
2023/09/14 11:56:33;;;;;;;;;;;28.50;88.50;;;;;;5004053;28;19948;-67
2023/09/14 11:59:00;;;;;;;;;;;28.30;87.70;;;;;;4996536;28;19906;-67
2023/09/14 12:01:26;;;;;;;;;;;28.20;88.80;;;;;;5003458;28;19917;-67
2023/09/14 12:03:53;;;;;;;;;;;28.20;88.00;;;;;;5002241;28;19910;-67
2023/09/14 12:06:19;;;;;;;;;;;27.90;88.10;;;;;;4980318;28;19913;-68
2023/09/14 12:08:48;;;;;;;;;;;28.20;88.70;;;;;;5006844;28;19959;-67
2023/09/14 12:11:15;;;;;;;;;;;28.40;87.60;;;;;;4999270;28;20054;-67
2023/09/14 12:13:50;;;;;;;;;;;28.50;85.90;;;;;;5003176;28;20004;-66
2023/09/14 12:16:27;;;;;;;;;;;28.70;84.80;;;;;;5008912;28;19909;-67
2023/09/14 12:18:53;;;;;;;;;;;28.60;84.60;;;;;;5002432;28;20400;-67
2023/09/14 12:21:20;;;;;;;;;;;28.70;85.20;;;;;;5001655;28;19912;-67
2023/09/14 12:23:47;;;;;;;;;;;28.60;85.80;;;;;;5001764;28;19994;-67
2023/09/14 12:26:15;;;;;;;;;;;28.50;85.90;;;;;;4987844;28;19909;-67
2023/09/14 12:28:44;;;;;;;;;;;28.70;84.80;;;;;;5001761;28;19916;-67
2023/09/14 12:31:10;;;;;;;;;;;28.50;83.80;;;;;;5004351;28;19988;-67
2023/09/14 12:33:36;;;;;;;;;;;28.60;84.40;;;;;;4997480;28;19912;-67
2023/09/14 12:36:02;;;;;;;;;;;28.60;84.00;;;;;;5002249;28;19913;-67
2023/09/14 12:38:29;;;;;;;;;;;28.70;85.50;;;;;;5002415;28;19913;-67
2023/09/14 12:40:55;;;;;;;;;;;28.50;85.40;;;;;;4985239;28;19913;-66
2023/09/14 12:43:20;;;;;;;;;;;28.60;83.10;;;;;;5003389;28;19905;-67
2023/09/14 12:45:46;;;;;;;;;;;28.10;85.00;;;;;;4985522;28;20342;-67
2023/09/14 12:48:12;;;;;;;;;;;28.20;85.20;;;;;;4998705;28;19955;-67
2023/09/14 12:50:37;;;;;;;;;;;28.30;84.60;;;;;;5002752;28;19913;-67
2023/09/14 12:53:07;;;;;;;;;;;28.10;85.50;;;;;;5001558;28;20398;-67
2023/09/14 12:55:37;;;;;;;;;;;27.90;86.20;;;;;;4997348;28;19910;-67
2023/09/14 12:58:03;;;;;;;;;;;27.90;84.40;;;;;;5002511;28;20368;-67
2023/09/14 13:00:31;;;;;;;;;;;27.60;85.00;;;;;;5002708;28;19917;-67
2023/09/14 13:02:56;;;;;;;;;;;27.80;84.70;;;;;;4997898;28;20387;-67
2023/09/14 13:05:23;;;;;;;;;;;27.90;84.30;;;;;;4983826;28;19920;-67
2023/09/14 13:07:50;;;;;;;;;;;28.10;83.70;;;;;;4998356;28;19924;-68
2023/09/14 13:10:28;;;;;;;;;;;28.20;83.40;;;;;;5005217;28;19948;-67
2023/09/14 13:12:54;;;;;;;;;;;27.90;82.10;;;;;;5002491;28;19915;-67
2023/09/14 13:15:22;;;;;;;;;;;27.80;83.20;;;;;;5000910;28;20275;-67
2023/09/14 13:17:48;;;;;;;;;;;27.50;84.00;;;;;;4999318;28;20000;-67
2023/09/14 13:20:14;;;;;;;;;;;27.40;84.00;;;;;;5001781;28;19909;-67
2023/09/14 13:22:39;;;;;;;;;;;27.40;83.70;;;;;;5000931;28;19913;-67
2023/09/14 13:25:05;;;;;;;;;;;27.30;83.90;;;;;;5001990;28;19917;-67
2023/09/14 13:27:34;;;;;;;;;;;27.30;84.50;;;;;;5002307;28;19971;-67
2023/09/14 13:30:00;;;;;;;;;;;27.40;85.00;;;;;;4980512;28;19905;-67
2023/09/14 13:32:26;;;;;;;;;;;27.60;84.70;;;;;;5002125;28;19905;-67
2023/09/14 13:34:51;;;;;;;;;;;27.30;84.10;;;;;;5001249;28;19920;-67
2023/09/14 13:37:17;;;;;;;;;;;27.00;84.10;;;;;;5001770;28;19913;-67
2023/09/14 13:39:43;;;;;;;;;;;26.90;86.00;;;;;;4981981;28;20008;-67
2023/09/14 13:42:08;;;;;;;;;;;26.60;86.20;;;;;;5002355;28;20403;-67
2023/09/14 13:44:36;;;;;;;;;;;26.10;87.20;;;;;;4984622;28;19917;-67
2023/09/14 13:47:02;;;;;;;;;;;26.00;88.20;;;;;;5001225;28;19909;-67
2023/09/14 13:49:29;;;;;;;;;;;26.20;87.30;;;;;;4997050;28;19959;-67
2023/09/14 13:51:55;;;;;;;;;;;26.40;88.00;;;;;;5000689;28;19912;-67
2023/09/14 13:54:20;;;;;;;;;;;26.40;87.20;;;;;;5000011;28;19909;-67
2023/09/14 13:56:46;;;;;;;;;;;26.20;87.80;;;;;;4983935;28;20787;-68
2023/09/14 13:59:12;;;;;;;;;;;25.90;88.10;;;;;;5001893;28;19917;-67
2023/09/14 14:01:37;;;;;;;;;;;25.80;89.00;;;;;;4999767;28;19913;-67
2023/09/14 14:04:03;;;;;;;;;;;26.10;88.50;;;;;;4996564;28;19906;-67
2023/09/14 14:06:29;;;;;;;;;;;26.30;87.80;;;;;;4983318;28;19905;-67
2023/09/14 14:08:54;;;;;;;;;;;26.30;88.20;;;;;;4999915;28;19909;-68
2023/09/14 14:11:20;;;;;;;;;;;26.40;88.40;;;;;;5000137;28;19916;-67
2023/09/14 14:13:46;;;;;;;;;;;26.30;87.80;;;;;;5001691;28;19913;-67